sensor_id;sensor_type;location;lat;lon;timestamp;P1;durP1;ratioP1;P2;durP2;ratioP2
73113;SDS011;61301;51.956;5.876;2023-02-28T00:00:34;0.90;;;0.70;;
73113;SDS011;61301;51.956;5.876;2023-02-28T00:03:01;1.30;;;0.57;;
73113;SDS011;61301;51.956;5.876;2023-02-28T00:05:27;1.80;;;0.70;;
73113;SDS011;61301;51.956;5.876;2023-02-28T00:07:54;1.15;;;0.63;;
73113;SDS011;61301;51.956;5.876;2023-02-28T00:10:22;1.40;;;0.70;;
73113;SDS011;61301;51.956;5.876;2023-02-28T00:12:50;1.40;;;0.70;;
73113;SDS011;61301;51.956;5.876;2023-02-28T00:15:17;1.52;;;1.20;;
73113;SDS011;61301;51.956;5.876;2023-02-28T00:17:44;0.85;;;0.60;;
73113;SDS011;61301;51.956;5.876;2023-02-28T00:20:10;0.57;;;0.45;;
73113;SDS011;61301;51.956;5.876;2023-02-28T00:22:38;1.17;;;0.60;;
73113;SDS011;61301;51.956;5.876;2023-02-28T00:25:06;0.80;;;0.60;;
73113;SDS011;61301;51.956;5.876;2023-02-28T00:27:33;1.80;;;0.70;;
73113;SDS011;61301;51.956;5.876;2023-02-28T00:30:04;1.70;;;0.90;;
73113;SDS011;61301;51.956;5.876;2023-02-28T00:32:32;1.48;;;0.70;;
73113;SDS011;61301;51.956;5.876;2023-02-28T00:35:00;1.08;;;0.90;;
73113;SDS011;61301;51.956;5.876;2023-02-28T00:37:27;1.20;;;0.73;;
73113;SDS011;61301;51.956;5.876;2023-02-28T00:39:53;2.35;;;0.70;;
73113;SDS011;61301;51.956;5.876;2023-02-28T00:42:19;1.30;;;1.02;;
73113;SDS011;61301;51.956;5.876;2023-02-28T00:44:47;1.95;;;1.00;;
73113;SDS011;61301;51.956;5.876;2023-02-28T00:47:13;1.13;;;0.77;;
73113;SDS011;61301;51.956;5.876;2023-02-28T00:49:39;0.52;;;0.52;;
73113;SDS011;61301;51.956;5.876;2023-02-28T00:52:05;1.52;;;0.95;;
73113;SDS011;61301;51.956;5.876;2023-02-28T00:54:31;3.05;;;1.33;;
73113;SDS011;61301;51.956;5.876;2023-02-28T00:56:58;3.10;;;1.70;;
73113;SDS011;61301;51.956;5.876;2023-02-28T00:59:24;2.95;;;1.58;;
73113;SDS011;61301;51.956;5.876;2023-02-28T01:01:50;3.28;;;2.13;;
73113;SDS011;61301;51.956;5.876;2023-02-28T01:04:16;3.20;;;1.77;;
73113;SDS011;61301;51.956;5.876;2023-02-28T01:06:42;4.50;;;2.10;;
73113;SDS011;61301;51.956;5.876;2023-02-28T01:09:09;3.30;;;1.80;;
73113;SDS011;61301;51.956;5.876;2023-02-28T01:11:36;3.65;;;1.98;;
73113;SDS011;61301;51.956;5.876;2023-02-28T01:14:02;3.65;;;1.50;;
73113;SDS011;61301;51.956;5.876;2023-02-28T01:16:29;1.85;;;1.35;;
73113;SDS011;61301;51.956;5.876;2023-02-28T01:18:55;2.25;;;1.52;;
73113;SDS011;61301;51.956;5.876;2023-02-28T01:21:22;7.75;;;2.00;;
73113;SDS011;61301;51.956;5.876;2023-02-28T01:23:49;6.97;;;1.80;;
73113;SDS011;61301;51.956;5.876;2023-02-28T01:26:20;2.72;;;1.35;;
73113;SDS011;61301;51.956;5.876;2023-02-28T01:28:48;3.65;;;1.77;;
73113;SDS011;61301;51.956;5.876;2023-02-28T01:31:15;2.80;;;1.80;;
73113;SDS011;61301;51.956;5.876;2023-02-28T01:33:42;3.58;;;1.55;;
73113;SDS011;61301;51.956;5.876;2023-02-28T01:36:18;3.72;;;1.83;;
73113;SDS011;61301;51.956;5.876;2023-02-28T01:38:46;2.45;;;1.50;;
73113;SDS011;61301;51.956;5.876;2023-02-28T01:41:17;4.00;;;1.48;;
73113;SDS011;61301;51.956;5.876;2023-02-28T01:46:12;1.75;;;1.10;;
73113;SDS011;61301;51.956;5.876;2023-02-28T01:48:40;1.80;;;0.90;;
73113;SDS011;61301;51.956;5.876;2023-02-28T01:51:20;2.38;;;2.00;;
73113;SDS011;61301;51.956;5.876;2023-02-28T01:53:52;1.02;;;0.80;;
73113;SDS011;61301;51.956;5.876;2023-02-28T01:56:24;1.30;;;0.95;;
73113;SDS011;61301;51.956;5.876;2023-02-28T01:58:54;1.08;;;0.88;;
73113;SDS011;61301;51.956;5.876;2023-02-28T02:01:22;1.30;;;0.60;;
73113;SDS011;61301;51.956;5.876;2023-02-28T02:03:57;3.70;;;1.35;;
73113;SDS011;61301;51.956;5.876;2023-02-28T02:06:26;2.03;;;1.05;;
73113;SDS011;61301;51.956;5.876;2023-02-28T02:09:12;2.13;;;0.98;;
73113;SDS011;61301;51.956;5.876;2023-02-28T02:11:39;2.90;;;1.33;;
73113;SDS011;61301;51.956;5.876;2023-02-28T02:19:51;1.63;;;0.80;;
73113;SDS011;61301;51.956;5.876;2023-02-28T02:28:18;3.13;;;1.95;;
73113;SDS011;61301;51.956;5.876;2023-02-28T02:30:55;4.68;;;1.83;;
73113;SDS011;61301;51.956;5.876;2023-02-28T02:36:18;5.47;;;2.33;;
73113;SDS011;61301;51.956;5.876;2023-02-28T02:41:26;3.50;;;2.17;;
73113;SDS011;61301;51.956;5.876;2023-02-28T02:44:06;3.53;;;1.98;;
73113;SDS011;61301;51.956;5.876;2023-02-28T02:46:37;4.20;;;2.45;;
73113;SDS011;61301;51.956;5.876;2023-02-28T02:49:08;3.67;;;2.53;;
73113;SDS011;61301;51.956;5.876;2023-02-28T02:51:37;4.32;;;2.60;;
73113;SDS011;61301;51.956;5.876;2023-02-28T02:54:15;3.40;;;2.10;;
73113;SDS011;61301;51.956;5.876;2023-02-28T02:56:48;3.63;;;2.38;;
73113;SDS011;61301;51.956;5.876;2023-02-28T02:59:17;3.97;;;1.98;;
73113;SDS011;61301;51.956;5.876;2023-02-28T03:01:51;5.25;;;2.42;;
73113;SDS011;61301;51.956;5.876;2023-02-28T03:04:21;3.33;;;1.93;;
73113;SDS011;61301;51.956;5.876;2023-02-28T03:06:50;4.55;;;2.53;;
73113;SDS011;61301;51.956;5.876;2023-02-28T03:09:24;4.22;;;2.85;;
73113;SDS011;61301;51.956;5.876;2023-02-28T03:11:51;5.95;;;2.60;;
73113;SDS011;61301;51.956;5.876;2023-02-28T03:19:43;2.67;;;2.10;;
73113;SDS011;61301;51.956;5.876;2023-02-28T03:22:42;3.47;;;2.45;;
73113;SDS011;61301;51.956;5.876;2023-02-28T03:25:20;3.17;;;1.95;;
73113;SDS011;61301;51.956;5.876;2023-02-28T03:35:45;3.20;;;1.80;;
73113;SDS011;61301;51.956;5.876;2023-02-28T03:38:17;3.50;;;1.80;;
73113;SDS011;61301;51.956;5.876;2023-02-28T03:40:48;4.97;;;2.17;;
73113;SDS011;61301;51.956;5.876;2023-02-28T03:43:24;2.38;;;1.25;;
73113;SDS011;61301;51.956;5.876;2023-02-28T03:45:56;2.47;;;1.33;;
73113;SDS011;61301;51.956;5.876;2023-02-28T03:48:42;1.60;;;1.05;;
73113;SDS011;61301;51.956;5.876;2023-02-28T03:51:15;2.53;;;1.65;;
73113;SDS011;61301;51.956;5.876;2023-02-28T03:53:47;3.03;;;1.30;;
73113;SDS011;61301;51.956;5.876;2023-02-28T03:56:19;3.03;;;1.00;;
73113;SDS011;61301;51.956;5.876;2023-02-28T03:58:51;1.55;;;0.88;;
73113;SDS011;61301;51.956;5.876;2023-02-28T04:01:39;1.13;;;0.85;;
73113;SDS011;61301;51.956;5.876;2023-02-28T04:04:08;1.13;;;1.00;;
73113;SDS011;61301;51.956;5.876;2023-02-28T04:06:35;1.80;;;1.02;;
73113;SDS011;61301;51.956;5.876;2023-02-28T04:09:02;0.73;;;0.70;;
73113;SDS011;61301;51.956;5.876;2023-02-28T04:11:39;1.55;;;0.98;;
73113;SDS011;61301;51.956;5.876;2023-02-28T04:14:07;1.40;;;0.95;;
73113;SDS011;61301;51.956;5.876;2023-02-28T04:16:35;2.17;;;0.80;;
73113;SDS011;61301;51.956;5.876;2023-02-28T04:19:03;0.73;;;0.50;;
73113;SDS011;61301;51.956;5.876;2023-02-28T04:21:35;0.43;;;0.40;;
73113;SDS011;61301;51.956;5.876;2023-02-28T04:24:05;0.88;;;0.50;;
73113;SDS011;61301;51.956;5.876;2023-02-28T04:26:33;1.30;;;0.55;;
73113;SDS011;61301;51.956;5.876;2023-02-28T04:29:04;0.60;;;0.47;;
73113;SDS011;61301;51.956;5.876;2023-02-28T04:31:33;1.85;;;1.00;;
73113;SDS011;61301;51.956;5.876;2023-02-28T04:34:00;1.50;;;0.90;;
73113;SDS011;61301;51.956;5.876;2023-02-28T04:36:26;1.10;;;0.57;;
73113;SDS011;61301;51.956;5.876;2023-02-28T04:38:52;0.30;;;0.30;;
73113;SDS011;61301;51.956;5.876;2023-02-28T04:41:18;0.70;;;0.65;;
73113;SDS011;61301;51.956;5.876;2023-02-28T04:43:44;0.40;;;0.30;;
73113;SDS011;61301;51.956;5.876;2023-02-28T04:46:10;0.57;;;0.50;;
73113;SDS011;61301;51.956;5.876;2023-02-28T04:48:38;0.50;;;0.43;;
73113;SDS011;61301;51.956;5.876;2023-02-28T04:51:06;1.00;;;0.60;;
73113;SDS011;61301;51.956;5.876;2023-02-28T04:53:39;1.23;;;0.70;;
73113;SDS011;61301;51.956;5.876;2023-02-28T04:56:07;1.15;;;0.50;;
73113;SDS011;61301;51.956;5.876;2023-02-28T04:58:36;0.50;;;0.45;;
73113;SDS011;61301;51.956;5.876;2023-02-28T05:01:03;0.82;;;0.57;;
73113;SDS011;61301;51.956;5.876;2023-02-28T05:03:38;0.55;;;0.35;;
73113;SDS011;61301;51.956;5.876;2023-02-28T05:06:06;0.50;;;0.40;;
73113;SDS011;61301;51.956;5.876;2023-02-28T05:08:33;0.70;;;0.32;;
73113;SDS011;61301;51.956;5.876;2023-02-28T05:10:59;0.38;;;0.38;;
73113;SDS011;61301;51.956;5.876;2023-02-28T05:13:27;0.35;;;0.20;;
73113;SDS011;61301;51.956;5.876;2023-02-28T05:15:53;0.30;;;0.30;;
73113;SDS011;61301;51.956;5.876;2023-02-28T05:18:19;2.30;;;0.40;;
73113;SDS011;61301;51.956;5.876;2023-02-28T05:20:45;0.77;;;0.50;;
73113;SDS011;61301;51.956;5.876;2023-02-28T05:23:12;1.02;;;0.68;;
73113;SDS011;61301;51.956;5.876;2023-02-28T05:25:39;0.82;;;0.40;;
73113;SDS011;61301;51.956;5.876;2023-02-28T05:28:05;0.75;;;0.32;;
73113;SDS011;61301;51.956;5.876;2023-02-28T05:30:32;0.85;;;0.40;;
73113;SDS011;61301;51.956;5.876;2023-02-28T05:32:59;0.68;;;0.43;;
73113;SDS011;61301;51.956;5.876;2023-02-28T05:35:25;1.48;;;0.50;;
73113;SDS011;61301;51.956;5.876;2023-02-28T05:37:51;0.68;;;0.60;;
73113;SDS011;61301;51.956;5.876;2023-02-28T05:40:18;0.70;;;0.38;;
73113;SDS011;61301;51.956;5.876;2023-02-28T05:42:46;0.50;;;0.43;;
73113;SDS011;61301;51.956;5.876;2023-02-28T05:45:12;0.98;;;0.65;;
73113;SDS011;61301;51.956;5.876;2023-02-28T05:47:38;1.13;;;0.60;;
73113;SDS011;61301;51.956;5.876;2023-02-28T05:50:04;0.73;;;0.50;;
73113;SDS011;61301;51.956;5.876;2023-02-28T05:52:31;0.73;;;0.30;;
73113;SDS011;61301;51.956;5.876;2023-02-28T05:54:57;0.50;;;0.50;;
73113;SDS011;61301;51.956;5.876;2023-02-28T05:57:23;0.35;;;0.30;;
73113;SDS011;61301;51.956;5.876;2023-02-28T05:59:50;0.45;;;0.40;;
73113;SDS011;61301;51.956;5.876;2023-02-28T06:02:16;0.90;;;0.35;;
73113;SDS011;61301;51.956;5.876;2023-02-28T06:04:43;0.57;;;0.50;;
73113;SDS011;61301;51.956;5.876;2023-02-28T06:07:10;0.40;;;0.40;;
73113;SDS011;61301;51.956;5.876;2023-02-28T06:09:36;0.30;;;0.30;;
73113;SDS011;61301;51.956;5.876;2023-02-28T06:12:03;0.40;;;0.40;;
73113;SDS011;61301;51.956;5.876;2023-02-28T06:14:31;0.63;;;0.30;;
73113;SDS011;61301;51.956;5.876;2023-02-28T06:16:59;1.48;;;0.40;;
73113;SDS011;61301;51.956;5.876;2023-02-28T06:19:26;0.45;;;0.30;;
73113;SDS011;61301;51.956;5.876;2023-02-28T06:21:53;0.85;;;0.40;;
73113;SDS011;61301;51.956;5.876;2023-02-28T06:24:21;0.57;;;0.30;;
73113;SDS011;61301;51.956;5.876;2023-02-28T06:26:47;0.57;;;0.40;;
73113;SDS011;61301;51.956;5.876;2023-02-28T06:29:14;0.90;;;0.40;;
73113;SDS011;61301;51.956;5.876;2023-02-28T06:31:44;0.90;;;0.70;;
73113;SDS011;61301;51.956;5.876;2023-02-28T06:34:11;0.60;;;0.50;;
73113;SDS011;61301;51.956;5.876;2023-02-28T06:36:38;1.63;;;0.90;;
73113;SDS011;61301;51.956;5.876;2023-02-28T06:39:05;0.82;;;0.55;;
73113;SDS011;61301;51.956;5.876;2023-02-28T06:41:32;6.47;;;1.42;;
73113;SDS011;61301;51.956;5.876;2023-02-28T06:44:04;1.77;;;1.10;;
73113;SDS011;61301;51.956;5.876;2023-02-28T06:46:31;1.88;;;0.82;;
73113;SDS011;61301;51.956;5.876;2023-02-28T06:48:57;3.70;;;0.95;;
73113;SDS011;61301;51.956;5.876;2023-02-28T06:51:23;1.60;;;0.80;;
73113;SDS011;61301;51.956;5.876;2023-02-28T06:53:50;1.45;;;0.90;;
73113;SDS011;61301;51.956;5.876;2023-02-28T06:56:18;1.92;;;1.20;;
73113;SDS011;61301;51.956;5.876;2023-02-28T06:58:46;1.63;;;1.38;;
73113;SDS011;61301;51.956;5.876;2023-02-28T07:01:14;3.15;;;1.20;;
73113;SDS011;61301;51.956;5.876;2023-02-28T07:03:40;4.53;;;1.50;;
73113;SDS011;61301;51.956;5.876;2023-02-28T07:06:06;2.47;;;1.20;;
73113;SDS011;61301;51.956;5.876;2023-02-28T07:08:33;2.13;;;1.10;;
73113;SDS011;61301;51.956;5.876;2023-02-28T07:10:59;4.28;;;1.70;;
73113;SDS011;61301;51.956;5.876;2023-02-28T07:13:25;3.80;;;1.63;;
73113;SDS011;61301;51.956;5.876;2023-02-28T07:15:55;4.75;;;1.52;;
73113;SDS011;61301;51.956;5.876;2023-02-28T07:18:24;3.38;;;1.65;;
73113;SDS011;61301;51.956;5.876;2023-02-28T07:20:50;4.45;;;1.63;;
73113;SDS011;61301;51.956;5.876;2023-02-28T07:23:17;3.60;;;1.60;;
73113;SDS011;61301;51.956;5.876;2023-02-28T07:25:43;3.05;;;1.38;;
73113;SDS011;61301;51.956;5.876;2023-02-28T07:28:09;1.95;;;1.20;;
73113;SDS011;61301;51.956;5.876;2023-02-28T07:30:35;2.88;;;1.90;;
73113;SDS011;61301;51.956;5.876;2023-02-28T07:33:01;4.47;;;2.08;;
73113;SDS011;61301;51.956;5.876;2023-02-28T07:35:27;2.47;;;1.75;;
73113;SDS011;61301;51.956;5.876;2023-02-28T07:37:53;2.83;;;1.60;;
73113;SDS011;61301;51.956;5.876;2023-02-28T07:40:19;4.65;;;2.15;;
73113;SDS011;61301;51.956;5.876;2023-02-28T07:42:45;4.20;;;1.88;;
73113;SDS011;61301;51.956;5.876;2023-02-28T07:45:16;4.15;;;1.90;;
73113;SDS011;61301;51.956;5.876;2023-02-28T07:47:43;3.08;;;1.88;;
73113;SDS011;61301;51.956;5.876;2023-02-28T07:50:10;2.28;;;1.73;;
73113;SDS011;61301;51.956;5.876;2023-02-28T07:52:38;3.17;;;1.80;;
73113;SDS011;61301;51.956;5.876;2023-02-28T07:55:06;3.08;;;1.77;;
73113;SDS011;61301;51.956;5.876;2023-02-28T07:57:33;3.63;;;2.22;;
73113;SDS011;61301;51.956;5.876;2023-02-28T07:59:59;3.75;;;2.20;;
73113;SDS011;61301;51.956;5.876;2023-02-28T08:02:25;3.13;;;1.90;;
73113;SDS011;61301;51.956;5.876;2023-02-28T08:04:51;8.52;;;2.55;;
73113;SDS011;61301;51.956;5.876;2023-02-28T08:07:18;3.60;;;2.10;;
73113;SDS011;61301;51.956;5.876;2023-02-28T08:09:44;4.80;;;1.90;;
73113;SDS011;61301;51.956;5.876;2023-02-28T08:12:11;4.43;;;1.80;;
73113;SDS011;61301;51.956;5.876;2023-02-28T08:14:37;2.42;;;1.63;;
73113;SDS011;61301;51.956;5.876;2023-02-28T08:17:03;3.10;;;2.35;;
73113;SDS011;61301;51.956;5.876;2023-02-28T08:19:29;5.35;;;2.88;;
73113;SDS011;61301;51.956;5.876;2023-02-28T08:21:55;5.80;;;1.88;;
73113;SDS011;61301;51.956;5.876;2023-02-28T08:24:22;4.15;;;1.85;;
73113;SDS011;61301;51.956;5.876;2023-02-28T08:26:48;3.75;;;1.98;;
73113;SDS011;61301;51.956;5.876;2023-02-28T08:29:15;3.15;;;1.70;;
73113;SDS011;61301;51.956;5.876;2023-02-28T08:31:41;3.70;;;1.85;;
73113;SDS011;61301;51.956;5.876;2023-02-28T08:34:08;4.47;;;2.05;;
73113;SDS011;61301;51.956;5.876;2023-02-28T08:36:36;2.13;;;1.20;;
73113;SDS011;61301;51.956;5.876;2023-02-28T08:39:02;2.00;;;1.52;;
73113;SDS011;61301;51.956;5.876;2023-02-28T08:41:29;2.95;;;1.63;;
73113;SDS011;61301;51.956;5.876;2023-02-28T08:43:55;1.90;;;1.13;;
73113;SDS011;61301;51.956;5.876;2023-02-28T08:46:24;1.38;;;1.13;;
73113;SDS011;61301;51.956;5.876;2023-02-28T08:48:54;3.45;;;1.45;;
73113;SDS011;61301;51.956;5.876;2023-02-28T08:51:21;2.58;;;1.50;;
73113;SDS011;61301;51.956;5.876;2023-02-28T08:53:52;1.20;;;1.10;;
73113;SDS011;61301;51.956;5.876;2023-02-28T08:56:20;1.45;;;1.08;;
73113;SDS011;61301;51.956;5.876;2023-02-28T08:58:47;1.98;;;1.13;;
73113;SDS011;61301;51.956;5.876;2023-02-28T09:01:15;2.08;;;0.98;;
73113;SDS011;61301;51.956;5.876;2023-02-28T09:03:44;4.70;;;1.20;;
73113;SDS011;61301;51.956;5.876;2023-02-28T09:06:11;2.47;;;1.42;;
73113;SDS011;61301;51.956;5.876;2023-02-28T09:08:39;2.47;;;1.42;;
73113;SDS011;61301;51.956;5.876;2023-02-28T09:11:05;2.55;;;1.20;;
73113;SDS011;61301;51.956;5.876;2023-02-28T09:13:32;1.00;;;0.70;;
73113;SDS011;61301;51.956;5.876;2023-02-28T09:15:59;1.40;;;0.98;;
73113;SDS011;61301;51.956;5.876;2023-02-28T09:18:26;2.75;;;1.00;;
73113;SDS011;61301;51.956;5.876;2023-02-28T09:20:52;3.00;;;1.05;;
73113;SDS011;61301;51.956;5.876;2023-02-28T09:23:19;1.67;;;1.17;;
73113;SDS011;61301;51.956;5.876;2023-02-28T09:25:46;1.45;;;0.82;;
73113;SDS011;61301;51.956;5.876;2023-02-28T09:28:13;2.35;;;1.02;;
73113;SDS011;61301;51.956;5.876;2023-02-28T09:30:46;1.55;;;1.00;;
73113;SDS011;61301;51.956;5.876;2023-02-28T09:33:14;1.45;;;0.90;;
73113;SDS011;61301;51.956;5.876;2023-02-28T09:35:41;2.75;;;1.30;;
73113;SDS011;61301;51.956;5.876;2023-02-28T09:38:09;1.55;;;1.20;;
73113;SDS011;61301;51.956;5.876;2023-02-28T09:40:40;2.17;;;1.15;;
73113;SDS011;61301;51.956;5.876;2023-02-28T09:43:47;2.67;;;1.42;;
73113;SDS011;61301;51.956;5.876;2023-02-28T09:48:51;1.70;;;1.10;;
73113;SDS011;61301;51.956;5.876;2023-02-28T09:53:49;3.40;;;1.80;;
73113;SDS011;61301;51.956;5.876;2023-02-28T09:56:24;2.47;;;1.02;;
73113;SDS011;61301;51.956;5.876;2023-02-28T09:59:02;2.13;;;1.08;;
73113;SDS011;61301;51.956;5.876;2023-02-28T10:04:46;2.67;;;1.23;;
73113;SDS011;61301;51.956;5.876;2023-02-28T10:07:19;2.15;;;1.20;;
73113;SDS011;61301;51.956;5.876;2023-02-28T10:10:01;2.30;;;1.27;;
73113;SDS011;61301;51.956;5.876;2023-02-28T10:12:30;4.20;;;1.20;;
73113;SDS011;61301;51.956;5.876;2023-02-28T10:14:58;0.70;;;0.68;;
73113;SDS011;61301;51.956;5.876;2023-02-28T10:17:26;1.30;;;0.90;;
73113;SDS011;61301;51.956;5.876;2023-02-28T10:20:01;2.00;;;0.90;;
73113;SDS011;61301;51.956;5.876;2023-02-28T10:25:23;1.48;;;0.80;;
73113;SDS011;61301;51.956;5.876;2023-02-28T10:27:53;2.35;;;1.27;;
73113;SDS011;61301;51.956;5.876;2023-02-28T10:30:21;1.98;;;1.20;;
73113;SDS011;61301;51.956;5.876;2023-02-28T10:32:49;1.42;;;1.00;;
73113;SDS011;61301;51.956;5.876;2023-02-28T10:37:45;1.88;;;1.00;;
73113;SDS011;61301;51.956;5.876;2023-02-28T10:42:42;2.83;;;1.35;;
73113;SDS011;61301;51.956;5.876;2023-02-28T10:45:26;1.98;;;1.13;;
73113;SDS011;61301;51.956;5.876;2023-02-28T10:48:03;1.88;;;1.10;;
73113;SDS011;61301;51.956;5.876;2023-02-28T10:50:52;1.58;;;0.80;;
73113;SDS011;61301;51.956;5.876;2023-02-28T10:56:04;2.70;;;1.23;;
73113;SDS011;61301;51.956;5.876;2023-02-28T11:04:00;2.05;;;1.30;;
73113;SDS011;61301;51.956;5.876;2023-02-28T11:06:31;2.17;;;1.33;;
73113;SDS011;61301;51.956;5.876;2023-02-28T11:09:06;3.47;;;1.40;;
73113;SDS011;61301;51.956;5.876;2023-02-28T11:11:43;2.10;;;1.27;;
73113;SDS011;61301;51.956;5.876;2023-02-28T11:14:22;2.50;;;1.10;;
73113;SDS011;61301;51.956;5.876;2023-02-28T11:16:52;2.05;;;1.23;;
73113;SDS011;61301;51.956;5.876;2023-02-28T11:19:25;1.38;;;0.88;;
73113;SDS011;61301;51.956;5.876;2023-02-28T11:22:03;1.27;;;0.77;;
73113;SDS011;61301;51.956;5.876;2023-02-28T11:24:35;1.60;;;0.98;;
73113;SDS011;61301;51.956;5.876;2023-02-28T11:27:24;1.50;;;1.00;;
73113;SDS011;61301;51.956;5.876;2023-02-28T11:29:59;2.42;;;1.15;;
73113;SDS011;61301;51.956;5.876;2023-02-28T11:32:29;2.85;;;1.17;;
73113;SDS011;61301;51.956;5.876;2023-02-28T11:35:00;2.00;;;1.23;;
73113;SDS011;61301;51.956;5.876;2023-02-28T11:37:29;2.00;;;1.40;;
73113;SDS011;61301;51.956;5.876;2023-02-28T11:39:56;2.58;;;1.35;;
73113;SDS011;61301;51.956;5.876;2023-02-28T11:45:15;1.83;;;1.27;;
73113;SDS011;61301;51.956;5.876;2023-02-28T11:48:14;2.78;;;1.60;;
73113;SDS011;61301;51.956;5.876;2023-02-28T11:56:16;2.80;;;1.73;;
73113;SDS011;61301;51.956;5.876;2023-02-28T12:10:19;1.30;;;1.10;;
73113;SDS011;61301;51.956;5.876;2023-02-28T12:24:06;2.13;;;1.27;;
73113;SDS011;61301;51.956;5.876;2023-02-28T12:26:54;2.08;;;1.20;;
73113;SDS011;61301;51.956;5.876;2023-02-28T12:29:25;1.63;;;1.15;;
73113;SDS011;61301;51.956;5.876;2023-02-28T12:32:40;5.25;;;1.67;;
73113;SDS011;61301;51.956;5.876;2023-02-28T12:35:02;1.45;;;1.10;;
73113;SDS011;61301;51.956;5.876;2023-02-28T12:37:45;1.98;;;1.35;;
73113;SDS011;61301;51.956;5.876;2023-02-28T12:40:22;2.20;;;1.30;;
73113;SDS011;61301;51.956;5.876;2023-02-28T12:42:58;2.55;;;1.27;;
73113;SDS011;61301;51.956;5.876;2023-02-28T12:45:50;1.95;;;1.33;;
73113;SDS011;61301;51.956;5.876;2023-02-28T12:48:24;6.28;;;2.10;;
73113;SDS011;61301;51.956;5.876;2023-02-28T12:50:56;2.50;;;1.30;;
73113;SDS011;61301;51.956;5.876;2023-02-28T12:53:36;1.75;;;1.30;;
73113;SDS011;61301;51.956;5.876;2023-02-28T12:58:43;2.17;;;1.70;;
73113;SDS011;61301;51.956;5.876;2023-02-28T13:09:59;2.45;;;1.50;;
73113;SDS011;61301;51.956;5.876;2023-02-28T13:12:27;2.55;;;1.67;;
73113;SDS011;61301;51.956;5.876;2023-02-28T13:15:08;1.73;;;0.90;;
73113;SDS011;61301;51.956;5.876;2023-02-28T13:17:53;1.27;;;0.98;;
73113;SDS011;61301;51.956;5.876;2023-02-28T13:20:26;1.33;;;1.02;;
73113;SDS011;61301;51.956;5.876;2023-02-28T13:22:59;1.70;;;1.10;;
73113;SDS011;61301;51.956;5.876;2023-02-28T13:28:00;2.92;;;1.40;;
73113;SDS011;61301;51.956;5.876;2023-02-28T13:33:19;3.80;;;1.15;;
73113;SDS011;61301;51.956;5.876;2023-02-28T13:38:49;2.75;;;1.10;;
73113;SDS011;61301;51.956;5.876;2023-02-28T13:44:20;1.40;;;0.98;;
73113;SDS011;61301;51.956;5.876;2023-02-28T13:49:25;1.80;;;1.17;;
73113;SDS011;61301;51.956;5.876;2023-02-28T14:05:18;1.75;;;1.20;;
73113;SDS011;61301;51.956;5.876;2023-02-28T14:07:54;2.38;;;1.17;;
73113;SDS011;61301;51.956;5.876;2023-02-28T14:10:28;1.40;;;1.10;;
73113;SDS011;61301;51.956;5.876;2023-02-28T14:13:04;1.60;;;1.20;;
73113;SDS011;61301;51.956;5.876;2023-02-28T14:18:30;2.38;;;1.48;;
73113;SDS011;61301;51.956;5.876;2023-02-28T14:20:58;1.80;;;0.93;;
73113;SDS011;61301;51.956;5.876;2023-02-28T14:34:35;1.85;;;1.15;;
73113;SDS011;61301;51.956;5.876;2023-02-28T14:37:19;1.67;;;1.20;;
73113;SDS011;61301;51.956;5.876;2023-02-28T14:39:51;1.77;;;0.90;;
73113;SDS011;61301;51.956;5.876;2023-02-28T14:42:32;1.85;;;1.15;;
73113;SDS011;61301;51.956;5.876;2023-02-28T14:45:00;2.88;;;1.45;;
73113;SDS011;61301;51.956;5.876;2023-02-28T14:47:28;3.95;;;1.33;;
73113;SDS011;61301;51.956;5.876;2023-02-28T14:49:58;2.55;;;1.40;;
73113;SDS011;61301;51.956;5.876;2023-02-28T14:52:27;1.65;;;1.20;;
73113;SDS011;61301;51.956;5.876;2023-02-28T14:55:14;2.17;;;1.35;;
73113;SDS011;61301;51.956;5.876;2023-02-28T14:57:50;2.38;;;1.55;;
73113;SDS011;61301;51.956;5.876;2023-02-28T15:03:17;2.33;;;1.30;;
73113;SDS011;61301;51.956;5.876;2023-02-28T15:05:52;3.35;;;1.30;;
73113;SDS011;61301;51.956;5.876;2023-02-28T15:08:20;1.65;;;1.10;;
73113;SDS011;61301;51.956;5.876;2023-02-28T15:10:57;1.38;;;1.00;;
73113;SDS011;61301;51.956;5.876;2023-02-28T15:16:01;3.42;;;1.35;;
73113;SDS011;61301;51.956;5.876;2023-02-28T15:21:12;2.40;;;1.20;;
73113;SDS011;61301;51.956;5.876;2023-02-28T15:23:42;2.47;;;1.40;;
73113;SDS011;61301;51.956;5.876;2023-02-28T15:26:13;1.60;;;0.90;;
73113;SDS011;61301;51.956;5.876;2023-02-28T15:28:46;2.28;;;1.30;;
73113;SDS011;61301;51.956;5.876;2023-02-28T15:31:18;1.92;;;1.13;;
73113;SDS011;61301;51.956;5.876;2023-02-28T15:34:03;2.75;;;2.40;;
73113;SDS011;61301;51.956;5.876;2023-02-28T15:36:30;1.75;;;1.40;;
73113;SDS011;61301;51.956;5.876;2023-02-28T15:38:59;2.22;;;1.45;;
73113;SDS011;61301;51.956;5.876;2023-02-28T15:41:28;1.90;;;1.27;;
73113;SDS011;61301;51.956;5.876;2023-02-28T15:49:55;3.20;;;1.40;;
73113;SDS011;61301;51.956;5.876;2023-02-28T15:55:07;2.80;;;1.20;;
73113;SDS011;61301;51.956;5.876;2023-02-28T15:57:38;3.40;;;1.20;;
73113;SDS011;61301;51.956;5.876;2023-02-28T16:00:06;2.58;;;1.30;;
73113;SDS011;61301;51.956;5.876;2023-02-28T16:02:37;2.30;;;1.33;;
73113;SDS011;61301;51.956;5.876;2023-02-28T16:07:33;2.35;;;1.63;;
73113;SDS011;61301;51.956;5.876;2023-02-28T16:10:01;2.13;;;1.40;;
73113;SDS011;61301;51.956;5.876;2023-02-28T16:12:28;2.72;;;1.52;;
73113;SDS011;61301;51.956;5.876;2023-02-28T16:14:57;3.35;;;1.50;;
73113;SDS011;61301;51.956;5.876;2023-02-28T16:17:29;1.60;;;1.15;;
73113;SDS011;61301;51.956;5.876;2023-02-28T16:19:59;2.10;;;1.63;;
73113;SDS011;61301;51.956;5.876;2023-02-28T16:22:25;2.00;;;1.27;;
73113;SDS011;61301;51.956;5.876;2023-02-28T16:24:51;3.63;;;1.77;;
73113;SDS011;61301;51.956;5.876;2023-02-28T16:27:20;1.88;;;1.35;;
73113;SDS011;61301;51.956;5.876;2023-02-28T16:29:56;3.78;;;2.00;;
73113;SDS011;61301;51.956;5.876;2023-02-28T16:32:22;6.25;;;2.88;;
73113;SDS011;61301;51.956;5.876;2023-02-28T16:34:48;3.35;;;2.10;;
73113;SDS011;61301;51.956;5.876;2023-02-28T16:37:15;4.93;;;1.67;;
73113;SDS011;61301;51.956;5.876;2023-02-28T16:39:43;3.17;;;2.33;;
73113;SDS011;61301;51.956;5.876;2023-02-28T16:42:12;1.83;;;1.30;;
73113;SDS011;61301;51.956;5.876;2023-02-28T16:44:44;2.80;;;1.48;;
73113;SDS011;61301;51.956;5.876;2023-02-28T16:47:11;4.45;;;1.65;;
73113;SDS011;61301;51.956;5.876;2023-02-28T16:49:37;3.58;;;2.03;;
73113;SDS011;61301;51.956;5.876;2023-02-28T16:52:03;4.00;;;1.83;;
73113;SDS011;61301;51.956;5.876;2023-02-28T16:54:31;4.00;;;2.33;;
73113;SDS011;61301;51.956;5.876;2023-02-28T16:57:00;3.28;;;1.70;;
73113;SDS011;61301;51.956;5.876;2023-02-28T16:59:26;1.98;;;1.60;;
73113;SDS011;61301;51.956;5.876;2023-02-28T17:01:54;4.38;;;1.75;;
73113;SDS011;61301;51.956;5.876;2023-02-28T17:04:24;1.63;;;1.30;;
73113;SDS011;61301;51.956;5.876;2023-02-28T17:06:50;2.53;;;2.13;;
73113;SDS011;61301;51.956;5.876;2023-02-28T17:09:20;3.05;;;1.73;;
73113;SDS011;61301;51.956;5.876;2023-02-28T17:11:48;2.85;;;1.45;;
73113;SDS011;61301;51.956;5.876;2023-02-28T17:14:14;2.28;;;1.70;;
73113;SDS011;61301;51.956;5.876;2023-02-28T17:16:41;4.43;;;2.20;;
73113;SDS011;61301;51.956;5.876;2023-02-28T17:19:12;2.30;;;1.60;;
73113;SDS011;61301;51.956;5.876;2023-02-28T17:21:40;2.67;;;1.52;;
73113;SDS011;61301;51.956;5.876;2023-02-28T17:24:09;1.63;;;1.30;;
73113;SDS011;61301;51.956;5.876;2023-02-28T17:26:38;1.38;;;1.13;;
73113;SDS011;61301;51.956;5.876;2023-02-28T17:29:09;1.85;;;1.38;;
73113;SDS011;61301;51.956;5.876;2023-02-28T17:31:44;3.30;;;1.48;;
73113;SDS011;61301;51.956;5.876;2023-02-28T17:34:10;3.05;;;1.77;;
73113;SDS011;61301;51.956;5.876;2023-02-28T17:36:37;4.05;;;2.13;;
73113;SDS011;61301;51.956;5.876;2023-02-28T17:39:03;3.65;;;2.20;;
73113;SDS011;61301;51.956;5.876;2023-02-28T17:41:34;4.53;;;2.35;;
73113;SDS011;61301;51.956;5.876;2023-02-28T17:44:00;5.00;;;2.75;;